Sign-in with your pilot id or email, or register

ICAO: GOOY Name / Country: Léopold Sédar Senghor International Airport / Senegal
Latitude: 14.7397 Longitude: -17.4902
Total Arrivals:
Strict Standards: Non-static method AirportData::getarrflights() should not be called statically, assuming $this from incompatible context in /var/www/customers/vh-7192/web/home/phpvms/core/templates/airport_info.tpl on line 18
1
Total Departures:
Strict Standards: Non-static method AirportData::getdeptflights() should not be called statically, assuming $this from incompatible context in /var/www/customers/vh-7192/web/home/phpvms/core/templates/airport_info.tpl on line 21
1
Latest Arrival: MTA5PM (GABS-GOOY) Tibor Berces Latest Departure: MTA5PM (GOOY-GMMN) Tibor Berces
Metar: GOOY 271000Z 22004KT 9999 SCT013 30/26 Q1011
More info

Charts for GOOY


NOTAM


Warning: file_get_contents(http://api.vateud.net/notams/GOOY.json): failed to open stream: Redirection limit reached, aborting in /var/www/customers/vh-7192/web/home/phpvms/core/common/NOTAMSData.class.php on line 18

Warning: Invalid argument supplied for foreach() in /var/www/customers/vh-7192/web/home/phpvms/core/common/NOTAMSData.class.php on line 22

Léopold Sédar Senghor International Airport